Time;durP1;ratioP1;P1;durP2;ratioP2;P2;SDS_P1;SDS_P2;PMS_P1;PMS_P2;Temp;Humidity;BMP_temperature;BMP_pressure;BME280_temperature;BME280_humidity;BME280_pressure;Samples;Min_cycle;Max_cycle;Signal;HPM_P1;HPM_P2
2022/02/05 00:05:36;;;;;;;;;;;21.10;48.90;;;;;;5064404;28;19913;-66
2022/02/05 00:40:52;;;;;;;;;;;21.20;48.80;;;;;;5061911;28;19917;-63
2022/02/05 00:43:18;;;;;;;;;;;21.30;48.70;;;;;;5060513;28;19924;-62
2022/02/05 00:45:48;;;;;;;;;;;21.30;48.70;;;;;;5059731;28;19955;-66
2022/02/05 00:48:14;;;;;;;;;;;21.30;48.60;;;;;;5061966;28;19947;-61
2022/02/05 00:50:44;;;;;;;;;;;21.30;49.10;;;;;;5063075;28;19924;-62
2022/02/05 00:55:40;;;;;;;;;;;21.40;48.50;;;;;;5061098;28;19924;-65
2022/02/05 00:58:06;;;;;;;;;;;21.40;48.50;;;;;;5062128;28;19939;-65
2022/02/05 01:00:32;;;;;;;;;;;21.40;48.40;;;;;;5061958;28;19924;-64
2022/02/05 01:02:58;;;;;;;;;;;21.50;48.50;;;;;;5060388;28;19943;-66
2022/02/05 01:05:23;;;;;;;;;;;21.50;48.40;;;;;;5062562;28;20786;-62
2022/02/05 01:07:49;;;;;;;;;;;21.50;48.40;;;;;;5063228;28;19916;-62
2022/02/05 01:10:15;;;;;;;;;;;21.50;48.30;;;;;;5060273;28;19924;-61
2022/02/05 01:12:47;;;;;;;;;;;21.50;48.20;;;;;;5059900;28;20019;-63
2022/02/05 01:15:13;;;;;;;;;;;21.50;48.30;;;;;;5057958;28;19920;-63
2022/02/05 01:17:45;;;;;;;;;;;21.50;48.30;;;;;;5060661;28;19928;-62
2022/02/05 01:22:57;;;;;;;;;;;21.60;48.20;;;;;;5060469;28;19974;-65
2022/02/05 01:25:27;;;;;;;;;;;21.70;48.20;;;;;;5061856;28;20352;-63
2022/02/05 01:28:01;;;;;;;;;;;21.70;48.10;;;;;;5065413;28;19912;-65
2022/02/05 01:30:32;;;;;;;;;;;21.80;47.90;;;;;;5066240;28;19924;-64
2022/02/05 01:49:15;;;;;;;;;;;21.70;47.70;;;;;;5064253;28;20501;-61
2022/02/05 01:52:03;;;;;;;;;;;21.70;47.70;;;;;;5066762;28;19920;-66
2022/02/05 01:54:39;;;;;;;;;;;21.70;47.80;;;;;;5066733;28;19939;-62
2022/02/05 01:57:21;;;;;;;;;;;21.70;47.80;;;;;;5064225;28;19920;-66
2022/02/05 02:05:14;;;;;;;;;;;21.60;47.80;;;;;;5064888;28;20020;-62
2022/02/05 02:21:16;;;;;;;;;;;21.60;47.80;;;;;;5066772;28;19913;-66
2022/02/05 02:31:39;;;;;;;;;;;21.50;47.70;;;;;;5049210;28;19913;-64
2022/02/05 02:34:09;;;;;;;;;;;21.50;47.80;;;;;;5064598;28;19920;-65
2022/02/05 02:39:09;;;;;;;;;;;21.50;47.80;;;;;;5063823;28;19924;-62
2022/02/05 02:41:43;;;;;;;;;;;21.40;47.80;;;;;;5064228;28;20043;-62
2022/02/05 02:44:08;;;;;;;;;;;21.50;47.80;;;;;;5064682;28;20011;-66
2022/02/05 02:46:34;;;;;;;;;;;21.50;47.90;;;;;;5062801;28;20065;-65
2022/02/05 02:49:02;;;;;;;;;;;21.40;47.80;;;;;;5064169;28;19923;-66
2022/02/05 02:59:59;;;;;;;;;;;21.40;47.90;;;;;;5062675;28;19943;-62
2022/02/05 03:02:27;;;;;;;;;;;21.40;47.90;;;;;;5063992;28;19919;-66
2022/02/05 03:04:55;;;;;;;;;;;21.40;47.90;;;;;;5064032;28;19916;-65
2022/02/05 03:07:24;;;;;;;;;;;21.40;47.90;;;;;;5063552;28;19990;-66
2022/02/05 03:09:51;;;;;;;;;;;21.30;47.90;;;;;;5064060;28;19927;-63
2022/02/05 03:12:17;;;;;;;;;;;21.30;47.90;;;;;;5063607;28;19916;-65
2022/02/05 03:14:42;;;;;;;;;;;21.30;47.90;;;;;;5062464;28;19951;-65
2022/02/05 03:17:16;;;;;;;;;;;21.30;47.90;;;;;;5063915;28;19948;-62
2022/02/05 03:19:43;;;;;;;;;;;21.30;48.00;;;;;;5064998;28;20019;-66
2022/02/05 03:22:09;;;;;;;;;;;21.30;48.00;;;;;;5064393;28;19916;-63
2022/02/05 03:24:34;;;;;;;;;;;21.30;48.00;;;;;;5063614;28;20467;-65
2022/02/05 03:27:00;;;;;;;;;;;21.20;48.00;;;;;;5062824;28;19913;-62
2022/02/05 03:29:25;;;;;;;;;;;21.20;48.00;;;;;;5062398;28;19916;-63
2022/02/05 03:31:51;;;;;;;;;;;21.20;48.00;;;;;;5062712;28;20352;-65
2022/02/05 03:34:16;;;;;;;;;;;21.20;48.00;;;;;;5064999;28;19916;-61
2022/02/05 03:36:42;;;;;;;;;;;21.20;48.00;;;;;;5063154;28;19963;-61
2022/02/05 03:39:07;;;;;;;;;;;21.20;48.00;;;;;;5064474;28;19920;-66
2022/02/05 03:41:33;;;;;;;;;;;21.20;48.00;;;;;;5063902;28;19912;-65
2022/02/05 03:43:59;;;;;;;;;;;21.20;48.10;;;;;;5063006;28;20380;-61
2022/02/05 03:46:24;;;;;;;;;;;21.20;48.10;;;;;;5063153;28;20003;-65
2022/02/05 03:48:50;;;;;;;;;;;21.10;48.00;;;;;;5063687;28;20003;-62
2022/02/05 03:51:15;;;;;;;;;;;21.20;48.10;;;;;;5062965;28;20429;-60
2022/02/05 03:53:41;;;;;;;;;;;21.20;48.10;;;;;;5064286;28;19921;-62
2022/02/05 03:56:06;;;;;;;;;;;21.10;48.10;;;;;;5064879;28;19932;-64
2022/02/05 03:58:32;;;;;;;;;;;21.10;48.10;;;;;;5063793;28;19920;-64
2022/02/05 04:00:57;;;;;;;;;;;21.10;48.10;;;;;;5061803;28;19912;-62
2022/02/05 04:03:23;;;;;;;;;;;21.10;48.10;;;;;;5064033;28;19920;-64
2022/02/05 04:05:48;;;;;;;;;;;21.10;48.20;;;;;;5064240;28;19916;-64
2022/02/05 04:08:15;;;;;;;;;;;21.10;48.20;;;;;;5063789;28;19998;-65
2022/02/05 04:10:52;;;;;;;;;;;21.10;48.60;;;;;;5064601;28;19920;-64
2022/02/05 04:18:47;;;;;;;;;;;21.10;48.30;;;;;;5062855;28;20394;-66
2022/02/05 04:21:12;;;;;;;;;;;21.00;48.20;;;;;;5064435;28;20015;-66
2022/02/05 04:23:38;;;;;;;;;;;21.00;48.20;;;;;;5060941;28;19958;-64
2022/02/05 04:26:04;;;;;;;;;;;21.00;48.20;;;;;;5065527;28;20550;-60
2022/02/05 04:28:29;;;;;;;;;;;21.00;48.20;;;;;;5061648;28;19943;-62
2022/02/05 04:30:55;;;;;;;;;;;21.00;48.20;;;;;;5062476;28;19916;-62
2022/02/05 04:33:20;;;;;;;;;;;20.90;48.20;;;;;;5061598;28;19916;-65
2022/02/05 04:35:46;;;;;;;;;;;21.00;48.30;;;;;;5063678;28;20356;-65
2022/02/05 04:38:12;;;;;;;;;;;21.00;48.30;;;;;;5063487;28;19916;-63
2022/02/05 04:41:16;;;;;;;;;;;20.90;48.30;;;;;;5064430;28;20006;-65
2022/02/05 04:51:38;;;;;;;;;;;20.90;48.30;;;;;;5061891;28;19916;-65
2022/02/05 05:20:21;;;;;;;;;;;20.80;48.50;;;;;;5066551;28;19923;-61
2022/02/05 05:22:47;;;;;;;;;;;20.80;48.50;;;;;;5067359;28;20323;-64
2022/02/05 05:25:12;;;;;;;;;;;20.80;48.50;;;;;;5066197;28;20109;-64
2022/02/05 05:27:38;;;;;;;;;;;20.70;48.50;;;;;;5067901;28;19912;-65
2022/02/05 05:30:04;;;;;;;;;;;20.70;48.50;;;;;;5065099;28;19928;-62
2022/02/05 05:32:30;;;;;;;;;;;20.80;48.50;;;;;;5079676;28;19920;-62
2022/02/05 05:34:56;;;;;;;;;;;20.80;48.60;;;;;;5082838;28;19920;-62
2022/02/05 05:37:21;;;;;;;;;;;20.70;48.50;;;;;;5066459;28;19964;-64
2022/02/05 05:39:48;;;;;;;;;;;20.70;48.50;;;;;;5065002;28;19913;-64
2022/02/05 05:42:20;;;;;;;;;;;20.70;48.60;;;;;;5065983;28;20066;-62
2022/02/05 05:49:59;;;;;;;;;;;20.70;48.60;;;;;;5066967;28;19923;-64
2022/02/05 05:52:25;;;;;;;;;;;20.70;48.60;;;;;;5065801;28;19916;-62
2022/02/05 05:54:50;;;;;;;;;;;20.70;48.60;;;;;;5065133;28;19913;-65
2022/02/05 05:57:16;;;;;;;;;;;20.70;48.60;;;;;;5066152;28;19912;-60
2022/02/05 05:59:43;;;;;;;;;;;20.70;48.60;;;;;;5063653;28;19920;-65
2022/02/05 06:02:09;;;;;;;;;;;20.70;48.70;;;;;;5065787;28;19957;-61
2022/02/05 06:04:34;;;;;;;;;;;20.70;48.70;;;;;;5066350;28;20460;-61
2022/02/05 06:07:00;;;;;;;;;;;20.70;48.70;;;;;;5065663;28;20013;-64
2022/02/05 06:09:25;;;;;;;;;;;20.60;48.60;;;;;;5063118;28;19916;-64
2022/02/05 06:11:51;;;;;;;;;;;20.70;48.70;;;;;;5064829;28;19916;-64
2022/02/05 06:14:21;;;;;;;;;;;20.70;48.80;;;;;;5064512;28;20284;-61
2022/02/05 06:16:54;;;;;;;;;;;20.70;48.70;;;;;;5063749;28;19912;-64
2022/02/05 06:19:20;;;;;;;;;;;20.60;48.70;;;;;;5064502;28;20324;-60
2022/02/05 06:21:47;;;;;;;;;;;20.60;48.60;;;;;;5065254;28;19917;-62
2022/02/05 06:24:12;;;;;;;;;;;20.60;48.70;;;;;;5065170;28;19923;-62
2022/02/05 06:26:38;;;;;;;;;;;20.60;48.70;;;;;;5066877;28;20329;-64
2022/02/05 06:29:03;;;;;;;;;;;20.60;48.70;;;;;;5065098;28;19920;-64
2022/02/05 06:31:29;;;;;;;;;;;20.60;48.70;;;;;;5064312;28;19923;-61
2022/02/05 06:33:54;;;;;;;;;;;20.60;48.70;;;;;;5064898;28;19916;-62
2022/02/05 06:36:20;;;;;;;;;;;20.60;48.70;;;;;;5066437;28;19917;-65
2022/02/05 06:38:47;;;;;;;;;;;20.60;48.70;;;;;;5064024;28;19927;-60
2022/02/05 06:41:12;;;;;;;;;;;20.60;48.70;;;;;;5065348;28;19916;-61
2022/02/05 06:43:38;;;;;;;;;;;20.60;48.70;;;;;;5063844;28;19913;-64
2022/02/05 06:46:03;;;;;;;;;;;20.60;48.70;;;;;;5064806;28;20399;-64
2022/02/05 06:48:29;;;;;;;;;;;20.60;48.70;;;;;;5064644;28;19925;-64
2022/02/05 06:50:54;;;;;;;;;;;20.60;48.80;;;;;;5065930;28;19963;-65
2022/02/05 06:53:19;;;;;;;;;;;20.60;48.80;;;;;;5059740;28;19916;-63
2022/02/05 06:55:45;;;;;;;;;;;20.60;48.70;;;;;;5064332;28;19981;-65
2022/02/05 06:58:10;;;;;;;;;;;20.60;48.80;;;;;;5062666;28;20050;-64
2022/02/05 07:00:36;;;;;;;;;;;20.60;48.80;;;;;;5061386;28;19908;-62
2022/02/05 07:03:01;;;;;;;;;;;20.60;48.80;;;;;;5064956;28;20454;-62
2022/02/05 07:05:27;;;;;;;;;;;20.50;48.80;;;;;;5061631;28;19916;-62
2022/02/05 07:07:53;;;;;;;;;;;20.60;48.80;;;;;;5060871;28;20423;-65
2022/02/05 07:10:18;;;;;;;;;;;20.60;48.80;;;;;;5052471;28;19912;-63
2022/02/05 07:15:32;;;;;;;;;;;20.50;48.80;;;;;;5062483;28;19938;-63
2022/02/05 07:18:11;;;;;;;;;;;20.50;48.80;;;;;;5064161;28;19920;-62
2022/02/05 07:31:21;;;;;;;;;;;20.50;48.90;;;;;;5064061;28;19943;-63
2022/02/05 07:33:47;;;;;;;;;;;20.50;48.90;;;;;;5063824;28;19913;-63
2022/02/05 07:36:15;;;;;;;;;;;20.50;48.90;;;;;;5063449;28;20099;-63
2022/02/05 07:38:41;;;;;;;;;;;20.50;48.90;;;;;;5063816;28;19923;-63
2022/02/05 07:41:06;;;;;;;;;;;20.50;48.90;;;;;;5063907;28;19916;-61
2022/02/05 07:43:34;;;;;;;;;;;20.50;48.90;;;;;;5061621;28;19919;-64
2022/02/05 07:46:00;;;;;;;;;;;20.50;48.90;;;;;;5059804;28;19999;-64
2022/02/05 07:48:26;;;;;;;;;;;20.50;49.00;;;;;;5063089;28;19912;-61
2022/02/05 07:50:52;;;;;;;;;;;20.50;49.00;;;;;;5063619;28;20384;-65
2022/02/05 07:53:18;;;;;;;;;;;20.40;48.90;;;;;;5060399;28;20011;-65
2022/02/05 07:55:44;;;;;;;;;;;20.50;49.00;;;;;;5059060;28;21955;-61
2022/02/05 07:58:09;;;;;;;;;;;20.50;49.10;;;;;;5091984;28;20066;-61
2022/02/05 08:00:37;;;;;;;;;;;20.40;49.00;;;;;;5060092;28;19984;-66
2022/02/05 08:03:03;;;;;;;;;;;20.40;49.00;;;;;;5062849;28;19917;-66
2022/02/05 08:05:28;;;;;;;;;;;20.40;49.10;;;;;;5064783;28;19923;-61
2022/02/05 08:07:54;;;;;;;;;;;20.40;49.10;;;;;;5063603;28;19924;-66
2022/02/05 08:10:26;;;;;;;;;;;20.40;49.10;;;;;;5061999;28;19924;-66
2022/02/05 08:12:55;;;;;;;;;;;20.40;49.10;;;;;;5063221;28;20336;-65
2022/02/05 08:15:23;;;;;;;;;;;20.40;49.10;;;;;;5058100;28;19916;-65
2022/02/05 08:17:49;;;;;;;;;;;20.40;49.20;;;;;;5060082;28;19920;-63
2022/02/05 08:20:15;;;;;;;;;;;20.40;49.20;;;;;;5056949;28;19917;-67
2022/02/05 08:22:41;;;;;;;;;;;20.40;49.20;;;;;;5058979;28;19940;-66
2022/02/05 08:25:06;;;;;;;;;;;20.40;49.30;;;;;;5059213;28;19924;-65
2022/02/05 08:27:32;;;;;;;;;;;20.40;49.30;;;;;;5061533;28;19983;-65
2022/02/05 08:30:00;;;;;;;;;;;20.40;49.30;;;;;;5057247;28;20694;-65
2022/02/05 08:32:27;;;;;;;;;;;20.40;49.30;;;;;;5060032;28;19959;-61
2022/02/05 08:34:53;;;;;;;;;;;20.40;49.40;;;;;;5062026;28;19970;-65
2022/02/05 08:37:18;;;;;;;;;;;20.30;49.30;;;;;;5063747;28;20360;-61
2022/02/05 08:39:44;;;;;;;;;;;20.40;49.40;;;;;;5065074;28;19977;-63
2022/02/05 08:42:10;;;;;;;;;;;20.40;49.40;;;;;;5066205;28;19921;-65
2022/02/05 08:44:36;;;;;;;;;;;20.30;49.30;;;;;;5061691;28;19967;-63
2022/02/05 08:47:01;;;;;;;;;;;20.30;49.40;;;;;;5063301;28;19921;-65
2022/02/05 08:49:28;;;;;;;;;;;20.30;49.40;;;;;;5060537;28;20431;-63
2022/02/05 08:51:55;;;;;;;;;;;20.30;49.90;;;;;;5067045;28;19980;-63
2022/02/05 08:54:22;;;;;;;;;;;20.30;49.50;;;;;;5064169;28;19920;-64
2022/02/05 08:56:51;;;;;;;;;;;20.30;50.00;;;;;;5064393;28;19958;-63
2022/02/05 08:59:17;;;;;;;;;;;20.30;49.50;;;;;;5063301;28;20509;-66
2022/02/05 09:01:50;;;;;;;;;;;20.30;49.50;;;;;;5062727;28;19927;-65
2022/02/05 09:06:48;;;;;;;;;;;20.30;49.60;;;;;;5065805;28;19920;-61
2022/02/05 09:09:27;;;;;;;;;;;20.30;49.60;;;;;;5062343;28;20015;-63
2022/02/05 09:14:41;;;;;;;;;;;20.30;49.60;;;;;;5058842;28;20264;-66
2022/02/05 09:17:06;;;;;;;;;;;20.30;49.60;;;;;;5064147;28;19921;-64
2022/02/05 09:19:33;;;;;;;;;;;20.30;49.60;;;;;;5060897;28;19920;-63
2022/02/05 09:22:02;;;;;;;;;;;20.30;49.70;;;;;;5062995;28;19923;-63
2022/02/05 09:24:28;;;;;;;;;;;20.30;49.70;;;;;;5064089;28;19939;-63
2022/02/05 09:27:03;;;;;;;;;;;20.30;49.70;;;;;;5063883;28;19920;-62
2022/02/05 09:29:32;;;;;;;;;;;20.30;49.70;;;;;;5063375;28;19950;-63
2022/02/05 09:31:57;;;;;;;;;;;20.30;49.80;;;;;;5060971;28;19947;-65
2022/02/05 09:34:23;;;;;;;;;;;20.40;49.90;;;;;;5064944;28;20361;-62
2022/02/05 09:36:49;;;;;;;;;;;20.30;49.80;;;;;;5062603;28;19924;-65
2022/02/05 09:39:15;;;;;;;;;;;20.30;49.80;;;;;;5062612;28;20313;-65
2022/02/05 09:41:41;;;;;;;;;;;20.30;49.80;;;;;;5063870;28;19955;-62
2022/02/05 09:44:08;;;;;;;;;;;20.40;49.90;;;;;;5054982;28;19918;-62
2022/02/05 09:46:34;;;;;;;;;;;20.30;49.90;;;;;;5060628;28;19916;-62
2022/02/05 09:49:01;;;;;;;;;;;20.30;49.90;;;;;;5063876;28;19920;-62
2022/02/05 09:51:32;;;;;;;;;;;20.30;49.90;;;;;;5063625;28;19916;-65
2022/02/05 09:53:58;;;;;;;;;;;20.40;50.10;;;;;;5062917;28;19916;-65
2022/02/05 09:56:25;;;;;;;;;;;20.30;50.10;;;;;;5061989;28;19959;-62
2022/02/05 09:58:51;;;;;;;;;;;20.30;50.00;;;;;;5060105;28;20647;-62
2022/02/05 10:01:23;;;;;;;;;;;20.30;50.00;;;;;;5060914;28;19928;-62
2022/02/05 10:03:49;;;;;;;;;;;20.30;50.00;;;;;;5062238;28;19916;-62
2022/02/05 10:06:27;;;;;;;;;;;20.30;50.00;;;;;;5063954;28;19942;-64
2022/02/05 10:08:57;;;;;;;;;;;20.30;50.00;;;;;;5060927;28;19966;-65
2022/02/05 10:11:23;;;;;;;;;;;20.30;49.90;;;;;;5062300;28;19944;-65
2022/02/05 10:13:49;;;;;;;;;;;20.30;49.80;;;;;;5058329;28;20029;-62
2022/02/05 10:16:14;;;;;;;;;;;20.30;49.80;;;;;;5059471;28;19920;-64
2022/02/05 10:18:43;;;;;;;;;;;20.30;49.70;;;;;;5061577;28;19948;-62
2022/02/05 10:21:22;;;;;;;;;;;20.30;50.10;;;;;;5061056;28;19917;-65
2022/02/05 10:24:00;;;;;;;;;;;20.30;49.50;;;;;;5058969;28;19923;-65
2022/02/05 10:26:29;;;;;;;;;;;20.30;49.50;;;;;;5058030;28;20011;-62
2022/02/05 10:28:58;;;;;;;;;;;20.30;49.40;;;;;;5060085;28;19920;-65
2022/02/05 10:31:25;;;;;;;;;;;20.30;49.30;;;;;;5057083;28;19928;-64
2022/02/05 10:34:16;;;;;;;;;;;20.30;49.20;;;;;;5060639;28;19956;-65
2022/02/05 10:36:44;;;;;;;;;;;20.30;49.20;;;;;;5056371;28;20331;-66
2022/02/05 10:45:07;;;;;;;;;;;20.30;49.10;;;;;;5055515;28;19927;-62
2022/02/05 10:47:49;;;;;;;;;;;20.30;49.30;;;;;;5056294;28;20763;-65
2022/02/05 10:50:16;;;;;;;;;;;20.30;49.30;;;;;;5056492;28;19924;-61
2022/02/05 10:52:47;;;;;;;;;;;20.40;49.30;;;;;;5056950;28;19916;-65
2022/02/05 10:58:14;;;;;;;;;;;20.40;48.90;;;;;;5054962;28;19920;-62
2022/02/05 11:05:55;;;;;;;;;;;20.60;49.00;;;;;;5054650;28;20402;-62
2022/02/05 11:08:22;;;;;;;;;;;20.70;49.00;;;;;;5053852;28;19917;-66
2022/02/05 11:21:08;;;;;;;;;;;20.80;48.60;;;;;;5054959;28;20300;-61
2022/02/05 11:23:34;;;;;;;;;;;20.90;48.50;;;;;;5054359;28;19934;-65
2022/02/05 11:26:04;;;;;;;;;;;20.90;48.50;;;;;;5055659;28;20134;-61
2022/02/05 11:28:47;;;;;;;;;;;21.00;48.50;;;;;;5056594;28;19960;-64
2022/02/05 11:31:18;;;;;;;;;;;21.00;48.50;;;;;;5052395;28;19927;-63
2022/02/05 11:33:44;;;;;;;;;;;21.00;48.40;;;;;;5054868;28;20485;-62
2022/02/05 11:38:43;;;;;;;;;;;21.10;48.30;;;;;;5056411;28;20011;-65
2022/02/05 11:41:26;;;;;;;;;;;21.10;48.30;;;;;;5055182;28;19916;-66
2022/02/05 11:44:10;;;;;;;;;;;21.10;48.30;;;;;;5054531;28;19943;-64
2022/02/05 11:46:35;;;;;;;;;;;21.20;48.30;;;;;;5052844;28;19920;-62
2022/02/05 11:49:05;;;;;;;;;;;21.20;48.20;;;;;;5055588;28;19978;-63
2022/02/05 11:51:42;;;;;;;;;;;21.20;48.20;;;;;;5054839;28;20375;-67
2022/02/05 11:54:10;;;;;;;;;;;21.30;48.30;;;;;;5056831;28;19923;-62
2022/02/05 11:56:49;;;;;;;;;;;21.30;48.30;;;;;;5056399;28;20689;-67
2022/02/05 11:59:23;;;;;;;;;;;21.30;48.20;;;;;;5054813;28;19975;-66
2022/02/05 12:01:49;;;;;;;;;;;21.30;48.20;;;;;;5052365;28;19928;-65
2022/02/05 12:04:18;;;;;;;;;;;21.40;48.20;;;;;;5056914;28;20194;-64
2022/02/05 12:06:44;;;;;;;;;;;21.40;48.20;;;;;;5057378;28;19927;-66
2022/02/05 12:09:32;;;;;;;;;;;21.40;48.10;;;;;;5055066;28;19931;-66
2022/02/05 12:12:17;;;;;;;;;;;21.40;48.10;;;;;;5090984;27;19920;-63
2022/02/05 12:15:02;;;;;;;;;;;21.40;48.10;;;;;;5059392;28;20607;-65
2022/02/05 12:17:38;;;;;;;;;;;21.50;48.10;;;;;;5059832;28;19990;-63
2022/02/05 12:20:09;;;;;;;;;;;21.50;48.10;;;;;;5059552;28;20015;-64
2022/02/05 12:22:53;;;;;;;;;;;21.50;48.00;;;;;;5059145;28;19920;-65
2022/02/05 12:25:21;;;;;;;;;;;21.60;48.10;;;;;;5060426;28;19924;-64
2022/02/05 12:27:46;;;;;;;;;;;21.60;48.10;;;;;;5058872;28;19928;-65
2022/02/05 12:30:27;;;;;;;;;;;21.60;48.00;;;;;;5057450;28;19916;-65
2022/02/05 12:32:53;;;;;;;;;;;21.60;48.10;;;;;;5059978;28;19948;-66
2022/02/05 12:35:19;;;;;;;;;;;21.60;48.10;;;;;;5060868;28;19939;-66
2022/02/05 12:37:45;;;;;;;;;;;21.70;48.10;;;;;;5058775;28;19936;-66
2022/02/05 12:40:10;;;;;;;;;;;21.70;48.10;;;;;;5060333;28;19923;-65
2022/02/05 12:42:39;;;;;;;;;;;21.70;48.00;;;;;;5056921;28;20016;-67
2022/02/05 12:45:05;;;;;;;;;;;21.70;47.90;;;;;;5058420;28;20043;-66
2022/02/05 12:47:37;;;;;;;;;;;21.70;47.90;;;;;;5059894;28;19917;-66
2022/02/05 12:50:15;;;;;;;;;;;21.80;48.00;;;;;;5060302;28;19974;-67
2022/02/05 12:52:46;;;;;;;;;;;21.80;48.00;;;;;;5059052;28;19928;-65
2022/02/05 12:55:19;;;;;;;;;;;21.80;47.90;;;;;;5058489;28;19924;-67
2022/02/05 12:58:03;;;;;;;;;;;21.80;47.80;;;;;;5057396;28;20642;-66
2022/02/05 13:00:28;;;;;;;;;;;21.80;47.70;;;;;;5056789;28;20022;-67
2022/02/05 13:02:54;;;;;;;;;;;21.90;47.50;;;;;;5057011;28;20333;-66
2022/02/05 13:05:35;;;;;;;;;;;21.90;47.40;;;;;;5060112;28;19923;-67
2022/02/05 13:08:00;;;;;;;;;;;21.90;47.30;;;;;;5054406;28;19928;-67
2022/02/05 13:10:39;;;;;;;;;;;21.90;47.20;;;;;;5056194;28;19942;-64
2022/02/05 13:13:05;;;;;;;;;;;21.90;47.20;;;;;;5055840;28;19921;-66
2022/02/05 13:15:31;;;;;;;;;;;21.90;47.00;;;;;;5057247;28;19959;-62
2022/02/05 13:25:52;;;;;;;;;;;22.00;46.80;;;;;;5055576;28;20729;-66
2022/02/05 13:28:33;;;;;;;;;;;22.00;46.80;;;;;;5057537;28;19988;-63
2022/02/05 13:33:55;;;;;;;;;;;22.00;46.80;;;;;;5058053;28;19932;-64
2022/02/05 13:36:36;;;;;;;;;;;22.00;46.70;;;;;;5057432;28;20387;-66
2022/02/05 13:39:14;;;;;;;;;;;22.10;46.80;;;;;;5059033;28;19932;-65
2022/02/05 13:41:48;;;;;;;;;;;22.00;46.80;;;;;;5059979;28;19916;-65
2022/02/05 13:44:17;;;;;;;;;;;22.00;46.80;;;;;;5057684;28;19926;-63
2022/02/05 13:46:58;;;;;;;;;;;22.10;47.40;;;;;;5058547;28;19990;-67
2022/02/05 13:49:23;;;;;;;;;;;22.10;46.80;;;;;;5058390;28;19974;-66
2022/02/05 13:51:50;;;;;;;;;;;22.10;46.80;;;;;;5058843;28;19921;-63
2022/02/05 13:54:15;;;;;;;;;;;22.10;46.80;;;;;;5058163;28;19971;-63
2022/02/05 13:56:41;;;;;;;;;;;22.10;46.90;;;;;;5058706;28;20023;-66
2022/02/05 13:59:18;;;;;;;;;;;22.10;46.90;;;;;;5057702;28;19920;-63
2022/02/05 14:01:43;;;;;;;;;;;22.10;46.90;;;;;;5055196;28;20363;-66
2022/02/05 14:04:13;;;;;;;;;;;22.10;46.90;;;;;;5053482;28;19920;-64
2022/02/05 14:06:54;;;;;;;;;;;22.10;47.00;;;;;;5055467;28;20010;-66
2022/02/05 14:09:25;;;;;;;;;;;22.10;47.00;;;;;;5055793;28;19920;-64
2022/02/05 14:11:51;;;;;;;;;;;22.10;46.90;;;;;;5071121;28;21808;-65
2022/02/05 14:14:27;;;;;;;;;;;22.10;46.80;;;;;;5052566;28;19926;-67
2022/02/05 14:16:53;;;;;;;;;;;22.10;46.80;;;;;;5053871;28;20611;-67
2022/02/05 14:19:19;;;;;;;;;;;22.10;47.00;;;;;;5055315;28;19932;-64
2022/02/05 14:21:48;;;;;;;;;;;22.20;46.90;;;;;;5056676;28;19939;-66
2022/02/05 14:24:14;;;;;;;;;;;22.10;46.90;;;;;;5054686;28;19917;-66
2022/02/05 14:26:51;;;;;;;;;;;22.20;47.00;;;;;;5054585;28;20388;-67
2022/02/05 14:29:17;;;;;;;;;;;22.20;47.00;;;;;;5051748;28;19924;-64
2022/02/05 14:31:54;;;;;;;;;;;22.20;47.00;;;;;;5054895;28;20603;-67
2022/02/05 14:42:36;;;;;;;;;;;22.20;46.70;;;;;;5055323;28;19943;-65
2022/02/05 14:45:03;;;;;;;;;;;22.20;46.70;;;;;;5055499;28;19917;-64
2022/02/05 14:47:28;;;;;;;;;;;22.20;46.90;;;;;;5056053;28;20347;-65
2022/02/05 14:49:54;;;;;;;;;;;22.20;46.90;;;;;;5057272;28;19916;-68
2022/02/05 14:52:19;;;;;;;;;;;22.30;46.90;;;;;;5059419;28;19927;-66
2022/02/05 14:54:45;;;;;;;;;;;22.30;46.80;;;;;;5059187;28;20372;-64
2022/02/05 14:57:12;;;;;;;;;;;22.30;46.70;;;;;;5061144;28;19947;-63
2022/02/05 14:59:37;;;;;;;;;;;22.30;46.70;;;;;;5056417;28;19925;-63
2022/02/05 15:02:03;;;;;;;;;;;22.30;46.70;;;;;;5058246;28;19924;-66
2022/02/05 15:04:29;;;;;;;;;;;22.30;46.60;;;;;;5058733;28;19916;-64
2022/02/05 15:06:55;;;;;;;;;;;22.30;46.60;;;;;;5059963;28;20376;-63
2022/02/05 15:09:21;;;;;;;;;;;22.30;46.60;;;;;;5057069;28;19927;-65
2022/02/05 15:11:46;;;;;;;;;;;22.30;46.50;;;;;;5058288;28;20738;-67
2022/02/05 15:14:12;;;;;;;;;;;22.40;46.60;;;;;;5054924;28;19966;-66
2022/02/05 15:16:38;;;;;;;;;;;22.30;46.60;;;;;;5057281;28;19966;-66
2022/02/05 15:19:04;;;;;;;;;;;22.30;46.50;;;;;;5057868;28;19963;-64
2022/02/05 15:21:31;;;;;;;;;;;22.30;46.50;;;;;;5060486;28;19932;-67
2022/02/05 15:23:58;;;;;;;;;;;22.30;46.50;;;;;;5059894;28;20013;-64
2022/02/05 15:26:26;;;;;;;;;;;22.30;47.00;;;;;;5058475;28;19920;-64
2022/02/05 15:28:52;;;;;;;;;;;22.30;46.50;;;;;;5057372;28;20078;-63
2022/02/05 15:31:18;;;;;;;;;;;22.30;46.50;;;;;;5058424;28;19917;-66
2022/02/05 15:33:46;;;;;;;;;;;22.30;46.40;;;;;;5057389;28;19916;-64
2022/02/05 15:36:16;;;;;;;;;;;22.30;46.40;;;;;;5057482;28;20041;-65
2022/02/05 15:38:53;;;;;;;;;;;22.30;46.40;;;;;;5055106;28;19931;-67
2022/02/05 15:44:02;;;;;;;;;;;22.40;46.40;;;;;;5053416;28;19927;-67
2022/02/05 15:46:28;;;;;;;;;;;22.40;46.40;;;;;;5054011;28;19921;-64
2022/02/05 15:48:53;;;;;;;;;;;22.40;46.30;;;;;;5053380;28;19928;-64
2022/02/05 15:51:19;;;;;;;;;;;22.40;46.30;;;;;;5059236;28;19917;-64
2022/02/05 15:53:52;;;;;;;;;;;22.40;46.20;;;;;;5055969;28;19921;-65
2022/02/05 15:58:51;;;;;;;;;;;22.50;46.30;;;;;;5054164;28;19925;-64
2022/02/05 16:01:17;;;;;;;;;;;22.50;46.30;;;;;;5057942;28;20087;-65
2022/02/05 16:03:42;;;;;;;;;;;22.50;46.30;;;;;;5057400;28;20035;-66
2022/02/05 16:06:08;;;;;;;;;;;22.50;46.30;;;;;;5056780;28;19917;-66
2022/02/05 16:08:34;;;;;;;;;;;22.50;46.20;;;;;;5057344;28;19923;-63
2022/02/05 16:10:59;;;;;;;;;;;22.50;46.20;;;;;;5055869;28;19927;-64
2022/02/05 16:13:25;;;;;;;;;;;22.50;46.20;;;;;;5051374;28;20439;-66
2022/02/05 16:15:50;;;;;;;;;;;22.50;46.20;;;;;;5052258;28;19924;-65
2022/02/05 16:18:16;;;;;;;;;;;22.50;46.30;;;;;;5056575;28;19933;-67
2022/02/05 16:20:41;;;;;;;;;;;22.50;46.20;;;;;;5056886;28;19970;-63
2022/02/05 16:23:07;;;;;;;;;;;22.50;46.20;;;;;;5053823;28;20284;-63
2022/02/05 16:25:33;;;;;;;;;;;22.50;46.30;;;;;;5055385;28;19917;-62
2022/02/05 16:27:58;;;;;;;;;;;22.50;46.30;;;;;;5054480;28;19917;-64
2022/02/05 16:30:25;;;;;;;;;;;22.50;46.40;;;;;;5051449;28;19932;-64
2022/02/05 16:32:54;;;;;;;;;;;22.50;46.40;;;;;;5054737;28;19916;-63
2022/02/05 16:35:27;;;;;;;;;;;22.50;46.40;;;;;;5057815;28;19916;-63
2022/02/05 16:37:52;;;;;;;;;;;22.50;46.40;;;;;;5054485;28;19924;-62
2022/02/05 16:40:18;;;;;;;;;;;22.50;46.40;;;;;;5049839;28;19927;-65
2022/02/05 16:42:45;;;;;;;;;;;22.50;46.40;;;;;;5048172;28;21605;-65
2022/02/05 16:45:12;;;;;;;;;;;22.50;46.50;;;;;;5052327;28;20002;-64
2022/02/05 16:47:38;;;;;;;;;;;22.50;46.40;;;;;;5050989;28;19932;-64
2022/02/05 16:50:04;;;;;;;;;;;22.50;46.40;;;;;;5053546;28;20399;-67
2022/02/05 16:52:30;;;;;;;;;;;22.50;46.40;;;;;;5050631;28;19921;-64
2022/02/05 16:54:57;;;;;;;;;;;22.60;46.40;;;;;;5053633;28;21225;-64
2022/02/05 16:57:22;;;;;;;;;;;22.60;46.40;;;;;;5055886;28;19920;-63
2022/02/05 16:59:48;;;;;;;;;;;22.50;46.40;;;;;;5056124;28;19924;-64
2022/02/05 17:02:13;;;;;;;;;;;22.60;46.40;;;;;;5056429;28;19916;-66
2022/02/05 17:04:39;;;;;;;;;;;22.60;46.30;;;;;;5057131;28;19924;-66
2022/02/05 17:07:05;;;;;;;;;;;22.50;46.30;;;;;;5055408;28;19960;-65
2022/02/05 17:09:37;;;;;;;;;;;22.60;46.40;;;;;;5057572;28;19920;-66
2022/02/05 17:12:09;;;;;;;;;;;22.60;46.50;;;;;;5050744;28;20518;-66
2022/02/05 17:14:37;;;;;;;;;;;22.60;46.40;;;;;;5054267;28;19964;-66
2022/02/05 17:17:03;;;;;;;;;;;22.50;46.40;;;;;;5057311;28;19967;-66
2022/02/05 17:19:28;;;;;;;;;;;22.50;46.40;;;;;;5057923;28;20035;-64
2022/02/05 17:21:55;;;;;;;;;;;22.50;46.40;;;;;;5056277;28;19963;-66
2022/02/05 17:24:20;;;;;;;;;;;22.50;46.40;;;;;;5056323;28;19923;-65
2022/02/05 17:26:46;;;;;;;;;;;22.50;46.40;;;;;;5056842;28;20316;-66
2022/02/05 17:29:11;;;;;;;;;;;22.50;46.40;;;;;;5054190;28;19924;-66
2022/02/05 17:31:38;;;;;;;;;;;22.50;46.40;;;;;;5052398;28;19920;-66
2022/02/05 17:34:04;;;;;;;;;;;22.50;46.50;;;;;;5056625;28;20029;-67
2022/02/05 17:36:30;;;;;;;;;;;22.50;46.40;;;;;;5054941;28;19925;-63
2022/02/05 17:38:57;;;;;;;;;;;22.50;46.40;;;;;;5056073;28;20402;-64
2022/02/05 17:41:23;;;;;;;;;;;22.50;46.40;;;;;;5057155;28;20262;-66
2022/02/05 17:43:48;;;;;;;;;;;22.50;46.40;;;;;;5056182;28;19923;-63
2022/02/05 17:46:15;;;;;;;;;;;22.50;46.50;;;;;;5055776;28;19916;-66
2022/02/05 17:48:40;;;;;;;;;;;22.50;46.50;;;;;;5052419;28;19927;-62
2022/02/05 17:51:06;;;;;;;;;;;22.60;46.50;;;;;;5051705;28;20779;-66
2022/02/05 17:53:34;;;;;;;;;;;22.60;46.60;;;;;;5054488;28;20308;-67